THUNDERSTORM

Not for real navigation. The accuracy of this data is not assured See disclaimer for more information



ICAO NAME COUNTRY WIND Kt GUST Kt VIS m TEMP/DEW C BARO METAR
KHOT HOT SPRINGS MEMORIAL FIELD AR United States 0 0 400 9/9 29.95 KHOT 261153Z AUTO 00000KT 0.25SM FG VV001 09/09 A2995 RMK AO2 SLP140 T00940094 10106 20078 52011 TS
KMCB MCCOMB/PIKE COUNTY AIRPORT MS United States 0 0 400 18/17 30.00 KMCB 261215Z AUTO 00000KT 0.25SM FG VV002 18/17 A3000 RMK AO2 T01780172 TS
PPIZ Point Lay, Point Lay LRRS Airp AK United States 5 0 800 -26/-28 30.11 PPIZ 261242Z AUTO 19005KT 0.5SM HZ OVC002 M26/M28 A3011 RMK AO2 FZRANO TS
KHLC HILL CITY MUNICIPAL AIRPORT KS United States 4 0 1200 4/4 29.89 KHLC 261235Z AUTO 11004KT 0.75SM BR VV002 04/04 A2989 RMK AO2 T00440044 TS
KQFV 1 0 1600 2/1 30.09 KQFV 261240Z AUTO 35001KT 1600 BR BKN023 02/01 A3009 RMK A02 TS

Show more